Terminal Aerodrome Forecast
Issued by NWS Jacksonville, FL

Home | Current Version | Previous Version | Text Only | Print | Product List | Glossary On
Versions: 1 2 3 4 5 6 7 8 9 10 11 12 13 14 15 16 17 18 19 20 21 22 23 24 25 26 27 28 29 30 31 32 33 34 35 36 37 38 39 40 41 42
000
FTUS42 KJAX 251720
TAFJAX
TAF
KJAX 251720Z 2518/2618 09013G20KT P6SM -RA SCT025 OVC120
      TEMPO 2518/2522 6SM -RA BR BKN025 OVC060
     FM260000 09012KT P6SM VCSH SCT030 OVC080
     FM260400 08007KT P6SM VCSH SCT020 OVC050
      TEMPO 2609/2613 4SM SHRA BR OVC020
     FM261400 06012KT P6SM VCSH OVC015=

USA.gov is the U.S. government's official web portal to all federal, state and local government web resources and services.